Time;durP1;ratioP1;P1;durP2;ratioP2;P2;SDS_P1;SDS_P2;PMS_P1;PMS_P2;Temp;Humidity;BMP_temperature;BMP_pressure;BME280_temperature;BME280_humidity;BME280_pressure;Samples;Min_cycle;Max_cycle;Signal;HPM_P1;HPM_P2
2023/06/13 00:02:02;;;;;;;7.20;5.00;;;20.30;84.20;;;;;;5014714;28;20568;-85
2023/06/13 00:04:30;;;;;;;6.75;4.72;;;20.40;84.30;;;;;;5014558;28;20033;-84
2023/06/13 00:06:57;;;;;;;7.68;5.00;;;20.30;84.30;;;;;;5013201;28;20022;-84
2023/06/13 00:09:23;;;;;;;7.40;5.43;;;20.30;84.90;;;;;;5013443;28;20060;-84
2023/06/13 00:11:52;;;;;;;7.28;5.40;;;20.30;84.30;;;;;;5030643;28;20029;-84
2023/06/13 00:14:19;;;;;;;8.00;4.90;;;20.30;84.40;;;;;;5013114;28;20021;-84
2023/06/13 00:16:47;;;;;;;7.40;5.10;;;20.30;84.50;;;;;;5030239;28;20044;-85
2023/06/13 00:19:13;;;;;;;7.22;5.22;;;20.30;84.60;;;;;;5012679;28;20025;-84
2023/06/13 00:21:38;;;;;;;7.57;5.53;;;20.30;84.60;;;;;;5013073;28;20512;-84
2023/06/13 00:24:04;;;;;;;7.35;5.10;;;20.30;84.50;;;;;;5030184;28;20026;-86
2023/06/13 00:26:30;;;;;;;6.57;4.72;;;20.30;84.50;;;;;;5030920;28;20585;-84
2023/06/13 00:28:55;;;;;;;6.57;4.78;;;20.30;84.50;;;;;;5008250;28;20026;-86
2023/06/13 00:31:21;;;;;;;8.85;5.40;;;20.30;84.40;;;;;;5009963;28;20018;-84
2023/06/13 00:33:50;;;;;;;7.50;5.50;;;20.30;84.50;;;;;;5011380;28;20036;-84
2023/06/13 00:36:19;;;;;;;8.25;5.82;;;20.30;84.50;;;;;;5012432;28;20029;-86
2023/06/13 00:38:47;;;;;;;6.90;4.82;;;20.30;84.50;;;;;;5011986;28;20022;-85
2023/06/13 00:41:13;;;;;;;6.50;4.60;;;20.30;84.40;;;;;;5011804;28;20041;-85
2023/06/13 00:43:39;;;;;;;6.90;5.20;;;20.30;84.40;;;;;;5013500;28;20041;-85
2023/06/13 00:46:05;;;;;;;6.68;4.88;;;20.30;84.30;;;;;;5012262;28;20517;-85
2023/06/13 00:48:32;;;;;;;6.85;5.03;;;20.40;84.30;;;;;;5012252;28;20025;-84
2023/06/13 00:50:59;;;;;;;6.85;4.78;;;20.40;84.30;;;;;;5011549;28;20459;-84
2023/06/13 00:53:29;;;;;;;7.75;4.90;;;20.40;84.20;;;;;;5011448;28;20046;-85
2023/06/13 00:55:56;;;;;;;7.28;4.85;;;20.40;84.10;;;;;;5012956;28;20018;-85
2023/06/13 00:58:22;;;;;;;6.55;4.78;;;20.40;84.10;;;;;;5014063;28;20040;-85
2023/06/13 01:00:49;;;;;;;7.20;4.97;;;20.40;84.00;;;;;;5012110;28;20555;-86
2023/06/13 01:03:15;;;;;;;6.85;4.72;;;20.50;84.00;;;;;;5013449;28;20029;-86
2023/06/13 01:05:41;;;;;;;7.68;4.80;;;20.50;84.00;;;;;;5012533;28;20034;-87
2023/06/13 01:08:13;;;;;;;6.60;4.40;;;20.50;84.00;;;;;;5011292;28;20057;-87
2023/06/13 01:10:40;;;;;;;8.07;4.97;;;20.40;84.00;;;;;;5011723;28;20034;-86
2023/06/13 01:13:30;;;;;;;6.90;5.07;;;20.40;84.10;;;;;;5010780;28;20022;-86
2023/06/13 01:16:02;;;;;;;8.82;5.40;;;20.40;84.20;;;;;;5011159;28;20053;-86
2023/06/13 01:18:30;;;;;;;7.10;4.70;;;20.40;84.20;;;;;;5012859;28;20029;-87
2023/06/13 01:21:00;;;;;;;8.20;5.10;;;20.30;84.30;;;;;;5010985;28;20060;-86
2023/06/13 01:23:51;;;;;;;6.80;4.90;;;20.30;84.40;;;;;;5012270;28;20021;-86
2023/06/13 01:26:44;;;;;;;7.05;5.10;;;20.30;84.40;;;;;;5011060;28;20034;-86
2023/06/13 01:29:12;;;;;;;7.40;4.70;;;20.30;84.40;;;;;;5013338;28;20022;-86
2023/06/13 01:31:38;;;;;;;6.78;4.85;;;20.30;84.40;;;;;;5019926;28;20029;-86
2023/06/13 01:34:04;;;;;;;6.15;4.50;;;20.30;84.40;;;;;;5018940;28;20482;-86
2023/06/13 01:36:30;;;;;;;6.85;4.65;;;20.30;84.40;;;;;;5019186;28;20053;-86
2023/06/13 01:38:55;;;;;;;7.03;4.60;;;20.30;84.50;;;;;;5019974;28;20051;-85
2023/06/13 01:41:21;;;;;;;7.05;5.25;;;20.30;84.50;;;;;;5020211;28;20034;-85
2023/06/13 01:43:46;;;;;;;6.25;4.38;;;20.20;84.50;;;;;;5016742;28;20030;-87
2023/06/13 01:46:31;;;;;;;9.07;5.00;;;20.30;84.60;;;;;;5018079;28;20034;-85
2023/06/13 01:49:28;;;;;;;6.70;4.82;;;20.30;84.60;;;;;;5017795;28;20029;-85
2023/06/13 01:52:07;;;;;;;7.47;4.65;;;20.30;84.70;;;;;;5015276;28;20033;-86
2023/06/13 01:54:37;;;;;;;7.10;5.20;;;20.30;84.70;;;;;;5015884;28;20037;-85
2023/06/13 01:57:06;;;;;;;6.78;4.75;;;20.20;84.60;;;;;;5014660;28;20034;-86
2023/06/13 01:59:32;;;;;;;7.13;5.10;;;20.30;84.70;;;;;;5014074;28;20049;-87
2023/06/13 02:01:59;;;;;;;6.97;5.03;;;20.20;84.60;;;;;;5014076;28;20845;-86
2023/06/13 02:04:25;;;;;;;7.70;5.22;;;20.30;84.60;;;;;;5016055;28;20026;-85
2023/06/13 02:06:51;;;;;;;6.90;5.15;;;20.20;84.60;;;;;;5014007;28;20026;-85
2023/06/13 02:09:16;;;;;;;6.68;4.80;;;20.30;84.70;;;;;;5013207;28;20093;-84
2023/06/13 02:11:42;;;;;;;7.65;5.00;;;20.30;84.60;;;;;;5013187;28;20026;-85
2023/06/13 02:14:08;;;;;;;6.80;4.97;;;20.30;84.50;;;;;;5012886;28;20509;-85
2023/06/13 02:16:34;;;;;;;7.50;4.75;;;20.30;84.40;;;;;;5013249;28;20022;-86
2023/06/13 02:19:00;;;;;;;6.82;4.75;;;20.30;84.40;;;;;;5016387;28;20025;-86
2023/06/13 02:21:27;;;;;;;6.60;4.68;;;20.30;84.30;;;;;;5017739;28;20117;-86
2023/06/13 02:23:53;;;;;;;6.88;5.05;;;20.40;84.30;;;;;;5017405;28;20124;-85
2023/06/13 02:26:19;;;;;;;7.18;5.05;;;20.40;84.20;;;;;;5016094;28;20053;-85
2023/06/13 02:28:45;;;;;;;6.75;4.70;;;20.40;84.20;;;;;;5018364;28;20022;-85
2023/06/13 02:31:11;;;;;;;7.20;4.95;;;20.40;84.10;;;;;;5016147;28;20049;-85
2023/06/13 02:33:38;;;;;;;6.05;4.38;;;20.40;84.00;;;;;;5015288;28;20072;-85
2023/06/13 02:36:04;;;;;;;6.55;4.55;;;20.40;84.00;;;;;;5014063;28;20026;-85
2023/06/13 02:38:30;;;;;;;6.60;5.03;;;20.40;84.00;;;;;;5006886;28;20030;-85
2023/06/13 02:40:55;;;;;;;6.88;4.50;;;20.40;84.10;;;;;;4998083;28;20113;-86
2023/06/13 02:43:22;;;;;;;7.15;4.70;;;20.40;84.20;;;;;;5026725;28;20080;-87
2023/06/13 02:45:47;;;;;;;6.65;4.70;;;20.30;84.70;;;;;;5017482;28;20555;-86
2023/06/13 02:48:12;;;;;;;7.00;4.60;;;20.30;84.40;;;;;;5017550;28;20159;-85
2023/06/13 02:50:38;;;;;;;6.97;4.75;;;20.30;84.30;;;;;;5017544;28;20397;-86
2023/06/13 02:53:03;;;;;;;7.38;4.60;;;20.30;84.40;;;;;;5016383;28;20486;-86
2023/06/13 02:55:30;;;;;;;6.97;4.80;;;20.30;84.50;;;;;;5016654;28;20033;-85
2023/06/13 02:57:56;;;;;;;7.30;4.90;;;20.30;84.40;;;;;;5016085;28;20563;-85
2023/06/13 03:00:21;;;;;;;7.32;4.55;;;20.30;84.40;;;;;;5034026;28;20425;-85
2023/06/13 03:02:47;;;;;;;7.22;5.07;;;20.30;84.50;;;;;;5015455;28;20033;-85
2023/06/13 03:05:16;;;;;;;6.88;4.82;;;20.30;84.50;;;;;;5015035;28;20057;-85
2023/06/13 03:07:46;;;;;;;6.38;4.60;;;20.20;84.50;;;;;;5033403;28;20085;-84
2023/06/13 03:10:13;;;;;;;6.85;4.90;;;20.20;84.50;;;;;;5033032;28;20794;-85
2023/06/13 03:12:39;;;;;;;7.95;4.75;;;20.20;84.60;;;;;;5014761;28;20056;-85
2023/06/13 03:15:06;;;;;;;7.97;5.10;;;20.20;84.60;;;;;;5014573;28;20026;-85
2023/06/13 03:17:32;;;;;;;6.53;4.82;;;20.20;84.60;;;;;;5013814;28;20561;-86
2023/06/13 03:19:58;;;;;;;7.05;5.05;;;20.20;84.60;;;;;;5032538;28;20040;-85
2023/06/13 03:22:23;;;;;;;6.88;4.60;;;20.20;84.60;;;;;;5031549;28;20033;-84
2023/06/13 03:24:50;;;;;;;6.10;4.53;;;20.20;84.60;;;;;;5015363;28;20467;-84
2023/06/13 03:27:15;;;;;;;6.90;5.20;;;20.20;84.60;;;;;;5021438;28;20047;-83
2023/06/13 03:29:46;;;;;;;6.68;4.88;;;20.20;84.60;;;;;;5020519;28;20026;-83
2023/06/13 03:32:12;;;;;;;6.87;4.77;;;20.10;84.60;;;;;;5019638;28;20483;-82
2023/06/13 03:34:38;;;;;;;6.60;4.57;;;20.20;84.70;;;;;;5023705;28;20300;-83
2023/06/13 03:37:08;;;;;;;7.40;5.40;;;20.20;84.60;;;;;;5039221;28;20029;-84
2023/06/13 03:39:34;;;;;;;6.88;4.80;;;20.20;84.50;;;;;;5041532;28;20588;-83
2023/06/13 04:05:16;;;;;;;7.78;4.68;;;20.40;84.00;;;;;;5044402;22;20042;-81
2023/06/13 04:07:42;;;;;;;6.68;4.95;;;20.40;83.90;;;;;;5008262;28;20071;-79
2023/06/13 04:10:07;;;;;;;7.60;5.28;;;20.30;83.90;;;;;;5009240;28;20125;-80
2023/06/13 04:12:33;;;;;;;7.38;5.43;;;20.30;83.90;;;;;;5009282;28;20026;-79
2023/06/13 04:14:58;;;;;;;7.30;5.40;;;20.30;84.00;;;;;;5011157;28;20026;-85
2023/06/13 04:17:24;;;;;;;7.63;5.50;;;20.30;84.10;;;;;;5010338;28;20034;-85
2023/06/13 04:19:50;;;;;;;8.40;5.57;;;20.30;84.20;;;;;;5010565;28;20026;-84
2023/06/13 04:22:19;;;;;;;7.35;4.70;;;20.20;84.20;;;;;;5014280;28;20030;-83
2023/06/13 04:24:45;;;;;;;6.78;4.72;;;20.30;84.30;;;;;;5014431;28;20062;-84
2023/06/13 04:27:13;;;;;;;7.00;4.85;;;20.20;84.30;;;;;;5014512;28;20068;-83
2023/06/13 04:36:04;;;;;;;;;;;;;;;;;;;;;
2023/06/13 04:54:45;;;;;;;7.60;6.00;;;20.20;84.40;;;;;;5044130;28;20065;-87
2023/06/13 04:57:12;;;;;;;7.78;5.60;;;20.20;84.40;;;;;;5027723;28;20504;-86
2023/06/13 04:59:40;;;;;;;7.15;5.22;;;20.20;84.30;;;;;;5027683;28;20048;-85
2023/06/13 05:06:07;;;;;;;7.13;5.60;;;20.20;84.30;;;;;;4939810;29;20075;-84
2023/06/13 05:11:58;;;;;;;7.13;4.80;;;20.30;84.30;;;;;;4975166;28;20039;-88
2023/06/13 05:14:23;;;;;;;6.78;5.03;;;19.70;83.80;;;;;;5014785;28;20082;-86
2023/06/13 05:17:14;;;;;;;6.90;5.03;;;20.40;84.10;;;;;;5018148;28;20094;-86
2023/06/13 05:19:43;;;;;;;6.22;4.47;;;20.30;84.10;;;;;;5019711;28;20703;-85
2023/06/13 05:39:23;;;;;;;8.45;6.78;;;20.40;82.50;;;;;;4948506;29;20026;-86
2023/06/13 05:41:49;;;;;;;7.47;5.65;;;20.50;82.30;;;;;;4953629;28;20031;-84
2023/06/13 05:44:14;;;;;;;8.95;6.68;;;20.40;82.20;;;;;;4969542;29;20063;-86
2023/06/13 05:46:41;;;;;;;8.43;6.00;;;20.30;82.20;;;;;;5004247;28;20045;-86
2023/06/13 05:49:07;;;;;;;8.57;6.30;;;20.30;82.30;;;;;;5033401;28;20381;-87
2023/06/13 05:51:33;;;;;;;10.73;6.32;;;20.30;82.30;;;;;;5051282;28;20040;-86
2023/06/13 05:53:58;;;;;;;9.07;6.45;;;20.30;82.40;;;;;;5032377;28;20033;-85
2023/06/13 05:56:24;;;;;;;8.98;5.80;;;20.30;82.40;;;;;;5032124;28;20021;-85
2023/06/13 05:58:50;;;;;;;8.10;5.40;;;20.30;82.40;;;;;;5031848;28;20021;-86
2023/06/13 06:01:16;;;;;;;8.77;6.30;;;20.30;82.40;;;;;;5049659;28;20055;-87
2023/06/13 06:03:41;;;;;;;8.32;5.90;;;20.30;82.40;;;;;;5030275;28;20029;-85
2023/06/13 06:06:06;;;;;;;9.07;6.82;;;20.30;82.40;;;;;;5029736;28;20320;-85
2023/06/13 06:08:32;;;;;;;9.35;6.68;;;20.30;82.40;;;;;;5029114;28;20029;-87
2023/06/13 06:10:58;;;;;;;9.45;6.50;;;20.30;82.40;;;;;;5028829;28;20048;-85
2023/06/13 06:13:23;;;;;;;9.82;6.05;;;20.30;82.40;;;;;;5028539;28;20029;-86
2023/06/13 06:15:49;;;;;;;8.88;6.20;;;20.30;82.40;;;;;;5028368;28;20036;-86
2023/06/13 06:18:14;;;;;;;8.77;6.70;;;20.30;82.40;;;;;;5045388;28;20137;-86
2023/06/13 06:20:40;;;;;;;8.60;6.57;;;20.40;82.50;;;;;;5026710;28;20044;-85
2023/06/13 06:23:06;;;;;;;7.88;6.25;;;20.40;82.50;;;;;;5027035;28;20398;-85
2023/06/13 06:25:32;;;;;;;8.50;6.35;;;20.30;82.40;;;;;;5026154;28;20045;-87
2023/06/13 06:27:57;;;;;;;8.27;6.07;;;20.40;82.50;;;;;;5025743;28;20021;-87
2023/06/13 06:30:23;;;;;;;8.23;6.40;;;20.40;82.40;;;;;;5023937;28;20017;-85
2023/06/13 06:32:49;;;;;;;7.63;6.00;;;20.40;82.40;;;;;;5024328;28;20024;-86
2023/06/13 06:35:14;;;;;;;9.23;6.63;;;20.40;82.40;;;;;;5024653;28;20458;-84
2023/06/13 06:37:42;;;;;;;8.07;6.03;;;20.40;82.40;;;;;;5024115;28;20029;-84
2023/06/13 06:40:08;;;;;;;9.40;6.90;;;20.40;82.30;;;;;;5023892;28;20029;-86
2023/06/13 06:42:34;;;;;;;8.57;6.18;;;20.40;82.40;;;;;;5023833;28;20032;-85
2023/06/13 06:44:59;;;;;;;8.93;6.43;;;20.50;82.30;;;;;;5023181;28;20493;-85
2023/06/13 06:47:25;;;;;;;8.40;6.60;;;20.50;82.00;;;;;;5021828;28;20021;-85
2023/06/13 06:49:50;;;;;;;9.50;6.38;;;20.50;81.90;;;;;;5022412;28;20037;-86
2023/06/13 06:52:16;;;;;;;8.85;6.28;;;20.50;81.80;;;;;;5040697;28;20030;-85
2023/06/13 06:54:41;;;;;;;8.40;6.47;;;20.60;81.70;;;;;;5021892;28;20057;-86
2023/06/13 06:57:07;;;;;;;9.13;6.63;;;20.60;81.60;;;;;;5039865;28;20025;-87
2023/06/13 06:59:32;;;;;;;8.68;6.13;;;20.60;81.50;;;;;;5020588;28;20504;-85
2023/06/13 07:01:58;;;;;;;8.13;6.22;;;20.60;81.50;;;;;;5021229;28;20113;-85
2023/06/13 07:04:23;;;;;;;8.20;6.70;;;20.70;81.50;;;;;;5039204;28;20470;-84
2023/06/13 07:06:49;;;;;;;9.38;6.40;;;20.70;81.50;;;;;;5021403;28;20387;-85
2023/06/13 07:09:15;;;;;;;9.32;7.10;;;20.70;81.40;;;;;;5020228;28;20474;-84
2023/06/13 07:11:40;;;;;;;8.90;6.70;;;20.70;81.40;;;;;;5019463;28;20029;-85
2023/06/13 07:14:06;;;;;;;9.88;7.13;;;20.70;81.40;;;;;;5019548;28;20364;-88
2023/06/13 07:16:32;;;;;;;8.88;6.47;;;20.60;81.50;;;;;;5019063;28;20037;-84
2023/06/13 07:18:57;;;;;;;9.25;6.93;;;20.70;81.40;;;;;;5037214;28;20025;-85
2023/06/13 07:21:23;;;;;;;8.52;6.32;;;20.60;81.20;;;;;;5037718;28;20026;-85
2023/06/13 07:23:48;;;;;;;9.40;7.47;;;20.70;81.30;;;;;;5019034;28;20509;-85
2023/06/13 07:26:14;;;;;;;9.07;7.47;;;20.70;81.50;;;;;;5019882;28;20105;-83
2023/06/13 07:28:40;;;;;;;8.68;6.88;;;20.60;81.40;;;;;;5018416;28;20025;-84
2023/06/13 07:31:06;;;;;;;8.43;6.50;;;20.70;81.50;;;;;;5017891;28;20096;-85
2023/06/13 07:33:31;;;;;;;9.30;7.10;;;20.70;81.50;;;;;;5017514;28;20033;-86
2023/06/13 07:35:57;;;;;;;9.57;7.72;;;20.70;81.40;;;;;;5017501;28;20041;-85
2023/06/13 07:38:24;;;;;;;8.38;6.95;;;20.70;81.40;;;;;;5016962;28;20040;-84
2023/06/13 07:40:50;;;;;;;8.85;6.72;;;20.70;81.40;;;;;;5017713;28;20424;-85
2023/06/13 07:43:15;;;;;;;9.05;7.60;;;20.70;81.40;;;;;;5016191;28;20036;-85
2023/06/13 07:45:41;;;;;;;9.43;7.35;;;20.70;81.30;;;;;;5016231;28;20069;-84
2023/06/13 07:48:06;;;;;;;9.25;7.28;;;20.80;81.30;;;;;;5034829;28;20029;-84
2023/06/13 07:50:32;;;;;;;9.40;7.25;;;20.80;81.30;;;;;;5016777;28;20104;-85
2023/06/13 07:52:58;;;;;;;9.23;7.55;;;20.80;81.30;;;;;;5016691;28;20032;-85
2023/06/13 07:55:23;;;;;;;8.48;7.07;;;20.80;81.20;;;;;;5016311;28;20112;-84
2023/06/13 07:57:50;;;;;;;8.48;6.82;;;20.80;81.20;;;;;;5034130;28;20026;-85
2023/06/13 08:00:16;;;;;;;9.57;7.53;;;20.80;81.10;;;;;;5016216;28;20425;-84
2023/06/13 08:02:43;;;;;;;9.02;7.35;;;20.90;81.10;;;;;;5015986;28;20098;-84
2023/06/13 08:05:09;;;;;;;9.18;6.93;;;20.90;81.10;;;;;;5016835;28;20029;-87
2023/06/13 08:07:34;;;;;;;9.20;7.88;;;20.90;81.00;;;;;;5034364;28;20033;-87
2023/06/13 08:10:00;;;;;;;8.70;7.40;;;20.90;80.90;;;;;;5034833;28;20025;-87
2023/06/13 08:12:26;;;;;;;9.15;7.63;;;20.90;80.90;;;;;;5033914;28;20021;-88
2023/06/13 08:14:52;;;;;;;10.75;7.30;;;20.90;80.80;;;;;;5033593;28;20030;-87
2023/06/13 08:17:18;;;;;;;9.20;7.65;;;21.00;80.70;;;;;;5032550;28;20049;-86
2023/06/13 08:19:48;;;;;;;9.10;7.10;;;21.00;80.50;;;;;;5031736;28;20025;-85
2023/06/13 08:22:14;;;;;;;9.88;7.20;;;21.00;80.40;;;;;;5031248;28;20030;-85
2023/06/13 08:24:40;;;;;;;9.23;7.20;;;21.10;80.90;;;;;;5049141;28;20618;-85
2023/06/13 08:27:07;;;;;;;9.05;7.32;;;21.10;80.20;;;;;;5047492;28;20032;-86
2023/06/13 08:29:33;;;;;;;10.02;7.22;;;21.10;80.20;;;;;;5047364;28;20048;-86
2023/06/13 08:31:59;;;;;;;8.80;7.00;;;21.10;80.10;;;;;;5028603;28;20028;-85
2023/06/13 08:34:25;;;;;;;8.88;7.20;;;21.20;80.10;;;;;;5028372;28;20014;-85
2023/06/13 08:36:51;;;;;;;8.50;6.75;;;21.20;80.00;;;;;;5027722;28;20033;-87
2023/06/13 08:39:16;;;;;;;8.50;6.82;;;21.20;80.00;;;;;;5045751;28;20553;-85
2023/06/13 08:41:43;;;;;;;9.02;7.28;;;21.20;79.60;;;;;;5026369;28;20044;-85
2023/06/13 08:44:08;;;;;;;8.48;7.05;;;21.20;79.70;;;;;;5026339;28;20398;-85
2023/06/13 08:46:36;;;;;;;9.27;7.15;;;21.20;79.90;;;;;;5026003;28;20028;-84
2023/06/13 08:49:02;;;;;;;8.90;7.38;;;21.20;79.90;;;;;;5024576;28;20029;-85
2023/06/13 08:51:30;;;;;;;8.98;7.18;;;21.20;80.10;;;;;;5024374;28;20055;-85
2023/06/13 08:54:00;;;;;;;9.35;7.53;;;21.20;80.10;;;;;;5044678;28;20494;-88
2023/06/13 08:56:28;;;;;;;8.68;7.05;;;21.20;80.70;;;;;;5054641;28;20040;-87
2023/06/13 08:59:07;;;;;;;8.60;6.93;;;21.20;80.20;;;;;;5036952;28;20037;-87
2023/06/13 09:01:32;;;;;;;8.55;7.03;;;21.20;80.10;;;;;;5036540;28;20044;-86
2023/06/13 09:03:59;;;;;;;8.68;7.30;;;21.20;80.10;;;;;;5036021;28;20097;-86
2023/06/13 09:06:24;;;;;;;8.80;7.60;;;21.20;80.00;;;;;;5053061;28;20025;-86
2023/06/13 09:08:52;;;;;;;9.40;7.80;;;21.20;80.10;;;;;;5034185;28;20021;-87
2023/06/13 09:11:19;;;;;;;8.48;6.95;;;21.30;80.10;;;;;;5033867;28;20167;-85
2023/06/13 09:13:45;;;;;;;9.23;7.47;;;21.30;80.00;;;;;;5033208;28;20113;-86
2023/06/13 09:16:11;;;;;;;9.00;7.47;;;21.30;79.90;;;;;;5050717;28;20036;-86
2023/06/13 09:18:42;;;;;;;9.90;7.75;;;21.30;80.30;;;;;;5032096;28;20462;-85
2023/06/13 09:21:09;;;;;;;;;;;21.30;79.80;;;;;;5031966;28;20026;-85
2023/06/13 09:23:35;;;;;;;8.98;7.50;;;21.30;79.80;;;;;;5031440;28;19912;-87
2023/06/13 09:26:02;;;;;;;8.70;7.30;;;21.30;79.90;;;;;;5030417;28;20029;-84
2023/06/13 09:28:35;;;;;;;9.75;7.60;;;21.30;80.00;;;;;;5048011;28;20089;-86
2023/06/13 09:31:01;;;;;;;8.43;7.18;;;21.30;80.10;;;;;;5029563;28;20048;-84
2023/06/13 09:33:26;;;;;;;8.43;7.20;;;21.20;80.10;;;;;;5029216;28;20021;-87
2023/06/13 09:35:52;;;;;;;8.77;7.22;;;21.20;80.20;;;;;;5028195;28;20018;-85
2023/06/13 09:38:24;;;;;;;10.27;7.88;;;21.20;80.30;;;;;;5046640;28;20030;-85
2023/06/13 09:40:56;;;;;;;9.50;7.28;;;21.20;80.20;;;;;;5028208;28;20351;-87
2023/06/13 09:43:23;;;;;;;8.50;7.03;;;21.20;80.20;;;;;;5026755;28;20037;-85
2023/06/13 09:45:50;;;;;;;9.80;7.35;;;21.30;80.10;;;;;;5026457;28;20406;-86
2023/06/13 09:48:17;;;;;;;9.30;7.25;;;21.30;80.00;;;;;;5026017;28;20072;-86
2023/06/13 09:50:43;;;;;;;8.20;7.10;;;21.40;79.90;;;;;;5025844;28;20026;-85
2023/06/13 09:53:09;;;;;;;8.57;6.85;;;21.30;79.70;;;;;;5025329;28;20399;-85
2023/06/13 09:55:35;;;;;;;8.07;6.97;;;21.40;79.60;;;;;;5025577;28;20083;-85
2023/06/13 09:58:01;;;;;;;7.80;6.70;;;21.40;79.40;;;;;;5024825;28;20021;-84
2023/06/13 10:00:28;;;;;;;8.35;6.88;;;21.50;79.40;;;;;;5024188;28;20033;-85
2023/06/13 10:02:53;;;;;;;8.25;6.90;;;21.50;79.40;;;;;;5041635;28;20017;-85
2023/06/13 10:05:20;;;;;;;8.18;6.70;;;21.50;79.40;;;;;;5041473;28;20025;-85
2023/06/13 10:07:45;;;;;;;8.13;6.57;;;21.50;79.30;;;;;;5022788;28;20117;-85
2023/06/13 10:10:11;;;;;;;8.95;6.97;;;21.40;79.00;;;;;;5043190;28;20045;-86
2023/06/13 10:12:43;;;;;;;8.77;7.13;;;21.40;79.40;;;;;;5022499;28;20132;-85
2023/06/13 10:15:11;;;;;;;9.25;7.60;;;21.40;79.40;;;;;;5023372;28;20051;-85
2023/06/13 10:17:42;;;;;;;8.30;7.07;;;21.40;79.60;;;;;;5022303;28;20189;-84
2023/06/13 10:20:10;;;;;;;8.25;6.78;;;21.40;79.70;;;;;;5021821;28;20033;-85
2023/06/13 10:22:38;;;;;;;9.00;6.80;;;21.40;79.80;;;;;;5038938;28;20466;-85
2023/06/13 10:25:07;;;;;;;8.35;7.05;;;21.40;79.80;;;;;;5021182;28;20509;-85
2023/06/13 10:27:36;;;;;;;8.32;7.32;;;21.40;79.80;;;;;;5039183;28;20065;-86
2023/06/13 10:30:06;;;;;;;8.73;7.15;;;21.40;79.90;;;;;;5020259;28;20022;-86
2023/06/13 10:33:00;;;;;;;8.68;7.43;;;21.30;79.90;;;;;;5038800;28;20021;-84
2023/06/13 10:35:57;;;;;;;8.20;6.93;;;21.40;80.00;;;;;;5038165;28;20064;-85
2023/06/13 10:38:48;;;;;;;8.00;6.70;;;21.30;80.00;;;;;;5019711;28;20112;-86
2023/06/13 10:41:32;;;;;;;8.30;6.70;;;21.30;80.10;;;;;;5019996;28;20440;-84
2023/06/13 10:44:03;;;;;;;8.63;6.90;;;21.30;80.10;;;;;;5019082;28;20549;-84
2023/06/13 10:46:29;;;;;;;7.90;6.57;;;21.30;80.10;;;;;;5019108;28;20129;-84
2023/06/13 10:48:57;;;;;;;8.27;6.90;;;21.30;80.50;;;;;;5018769;28;20083;-85
2023/06/13 10:51:25;;;;;;;8.85;7.03;;;21.30;79.90;;;;;;5037840;28;20021;-84
2023/06/13 10:53:57;;;;;;;8.23;6.70;;;21.30;79.90;;;;;;5036559;28;20136;-84
2023/06/13 10:56:29;;;;;;;8.98;7.00;;;21.30;80.00;;;;;;5018178;28;20534;-84
2023/06/13 10:59:05;;;;;;;8.18;6.93;;;21.40;80.10;;;;;;5018156;28;20175;-82
2023/06/13 11:01:32;;;;;;;8.95;7.43;;;21.40;80.60;;;;;;5017186;28;20052;-84
2023/06/13 11:04:07;;;;;;;8.07;6.68;;;21.30;80.00;;;;;;5018042;28;20052;-85
2023/06/13 11:06:32;;;;;;;8.25;6.95;;;21.30;80.00;;;;;;5035567;28;20025;-84
2023/06/13 11:09:08;;;;;;;7.53;6.22;;;21.40;80.10;;;;;;5017709;28;20547;-84
2023/06/13 11:11:53;;;;;;;8.10;6.93;;;21.40;80.00;;;;;;5017268;28;20025;-85
2023/06/13 11:14:32;;;;;;;7.63;6.38;;;21.40;79.80;;;;;;5034672;28;20363;-84
2023/06/13 11:16:58;;;;;;;7.90;6.70;;;21.40;79.70;;;;;;5016971;28;20029;-84
2023/06/13 11:19:26;;;;;;;8.55;6.95;;;21.40;79.60;;;;;;5017042;28;20017;-84
2023/06/13 11:22:10;;;;;;;7.57;6.38;;;21.40;79.50;;;;;;5035168;28;20053;-84
2023/06/13 11:24:36;;;;;;;8.48;6.55;;;21.50;79.50;;;;;;5016964;28;20018;-84
2023/06/13 11:27:06;;;;;;;8.35;6.85;;;21.50;79.40;;;;;;5032993;28;20022;-88
2023/06/13 11:29:36;;;;;;;8.20;6.78;;;21.50;79.40;;;;;;5052982;28;20018;-87
2023/06/13 11:32:04;;;;;;;8.05;6.60;;;21.50;79.40;;;;;;5034425;28;20014;-87
2023/06/13 11:34:32;;;;;;;7.70;6.53;;;21.50;79.30;;;;;;5034286;28;20040;-88
2023/06/13 11:37:05;;;;;;;8.02;6.63;;;21.50;79.30;;;;;;5032331;28;20027;-86
2023/06/13 11:39:37;;;;;;;8.48;6.55;;;21.50;79.30;;;;;;5050690;28;20073;-85
2023/06/13 11:42:03;;;;;;;8.02;6.57;;;21.50;79.20;;;;;;5031352;28;20030;-86
2023/06/13 11:44:28;;;;;;;7.60;6.40;;;21.40;79.30;;;;;;5031209;28;20033;-86
2023/06/13 11:46:54;;;;;;;8.20;6.38;;;21.40;79.60;;;;;;5030364;28;20374;-84
2023/06/13 11:49:20;;;;;;;8.63;7.25;;;21.30;79.80;;;;;;5030760;28;20051;-85
2023/06/13 11:51:45;;;;;;;7.80;6.35;;;21.30;80.00;;;;;;5029159;28;20025;-84
2023/06/13 11:54:11;;;;;;;8.07;7.05;;;21.30;80.20;;;;;;5029155;28;20029;-86
2023/06/13 11:56:49;;;;;;;7.93;6.55;;;21.30;80.30;;;;;;5028860;28;20482;-87
2023/06/13 11:59:20;;;;;;;8.63;7.30;;;21.30;80.20;;;;;;5027117;28;20032;-84
2023/06/13 12:01:49;;;;;;;7.70;6.60;;;21.30;80.30;;;;;;5027162;28;20025;-85
2023/06/13 12:04:16;;;;;;;8.65;7.00;;;21.30;80.80;;;;;;5027145;28;20034;-84
2023/06/13 12:06:42;;;;;;;7.93;6.82;;;21.30;80.20;;;;;;5044755;28;20029;-84
2023/06/13 12:09:07;;;;;;;8.25;7.03;;;21.30;80.30;;;;;;5025685;28;20033;-85
2023/06/13 12:11:33;;;;;;;7.32;6.38;;;21.30;80.20;;;;;;5025800;28;20028;-85
2023/06/13 12:14:02;;;;;;;8.15;6.95;;;21.30;80.30;;;;;;5027298;28;20022;-86
2023/06/13 12:16:31;;;;;;;8.38;6.82;;;21.20;80.40;;;;;;5034169;28;20028;-86
2023/06/13 12:18:57;;;;;;;8.23;6.53;;;21.20;80.30;;;;;;5033642;28;20093;-86
2023/06/13 12:21:29;;;;;;;8.25;7.18;;;21.20;80.30;;;;;;5051143;28;20033;-87
2023/06/13 12:23:59;;;;;;;7.90;6.90;;;21.20;80.40;;;;;;5032490;28;20025;-85
2023/06/13 12:26:26;;;;;;;8.25;7.05;;;21.20;80.40;;;;;;5049091;28;20029;-85
2023/06/13 12:28:55;;;;;;;8.23;6.78;;;21.20;80.30;;;;;;5031499;28;20026;-87
2023/06/13 12:31:38;;;;;;;7.75;6.45;;;21.20;80.30;;;;;;5030484;28;20021;-84
2023/06/13 12:34:14;;;;;;;8.27;6.95;;;21.20;80.30;;;;;;5048316;28;20045;-86
2023/06/13 12:36:44;;;;;;;8.15;6.63;;;21.20;80.40;;;;;;5029344;28;20397;-85
2023/06/13 12:39:14;;;;;;;8.05;6.60;;;21.20;80.40;;;;;;5047043;28;20063;-85
2023/06/13 12:41:45;;;;;;;7.88;6.65;;;21.20;80.30;;;;;;5046847;28;20042;-85
2023/06/13 12:44:11;;;;;;;7.85;6.43;;;21.30;80.20;;;;;;5027325;28;20029;-84
2023/06/13 12:46:40;;;;;;;7.32;6.10;;;21.30;80.10;;;;;;5027130;28;20053;-85
2023/06/13 12:49:10;;;;;;;7.95;6.28;;;21.30;80.00;;;;;;5027433;28;20026;-84
2023/06/13 12:51:42;;;;;;;7.55;6.47;;;21.30;80.00;;;;;;5025831;28;20022;-85
2023/06/13 12:54:12;;;;;;;8.07;6.57;;;21.30;79.90;;;;;;5026024;28;20037;-85
2023/06/13 12:56:49;;;;;;;8.27;6.35;;;21.30;79.90;;;;;;5044352;28;20100;-84
2023/06/13 12:59:15;;;;;;;7.93;6.50;;;21.30;80.00;;;;;;5025423;28;20029;-86
2023/06/13 13:01:40;;;;;;;8.35;6.40;;;21.30;79.90;;;;;;5042907;28;20080;-85
2023/06/13 13:04:05;;;;;;;7.40;6.40;;;21.30;80.00;;;;;;5043330;28;20029;-85
2023/06/13 13:06:31;;;;;;;8.23;6.80;;;21.30;79.90;;;;;;5023272;28;20385;-85
2023/06/13 13:08:57;;;;;;;7.32;6.40;;;21.30;79.80;;;;;;5022856;28;20036;-84
2023/06/13 13:11:22;;;;;;;7.75;6.28;;;21.30;79.90;;;;;;5022557;28;20040;-85
2023/06/13 13:13:48;;;;;;;7.60;6.40;;;21.20;79.90;;;;;;5040954;28;20030;-84
2023/06/13 13:16:13;;;;;;;8.07;6.90;;;21.20;80.70;;;;;;5021763;28;20021;-83
2023/06/13 13:18:39;;;;;;;7.75;6.25;;;21.20;80.20;;;;;;5021807;28;20080;-86
2023/06/13 13:21:04;;;;;;;7.45;6.13;;;21.20;80.40;;;;;;5020987;28;20036;-84
2023/06/13 13:23:31;;;;;;;7.95;6.38;;;21.10;80.30;;;;;;5019951;28;20111;-84
2023/06/13 13:25:57;;;;;;;7.57;6.47;;;21.20;80.40;;;;;;5020425;28;20540;-85
2023/06/13 13:28:22;;;;;;;8.20;6.78;;;21.10;80.50;;;;;;5019711;28;20017;-84
2023/06/13 13:30:48;;;;;;;8.13;7.05;;;21.10;80.50;;;;;;5020472;28;20024;-84
2023/06/13 13:33:13;;;;;;;7.80;6.50;;;21.10;80.60;;;;;;5019840;28;20402;-85
2023/06/13 13:35:40;;;;;;;7.75;6.57;;;21.10;80.70;;;;;;5020352;28;20041;-85
2023/06/13 13:38:06;;;;;;;9.05;6.68;;;21.10;80.70;;;;;;5037922;28;20033;-83
2023/06/13 13:40:31;;;;;;;8.45;6.78;;;21.10;80.70;;;;;;5019490;28;20025;-84
2023/06/13 13:42:57;;;;;;;7.72;6.60;;;21.00;80.70;;;;;;5040712;28;20033;-84
2023/06/13 13:45:22;;;;;;;8.35;7.10;;;21.10;80.80;;;;;;5021905;28;20051;-84
2023/06/13 13:47:48;;;;;;;8.43;6.70;;;21.10;80.80;;;;;;5021579;28;20067;-84
2023/06/13 13:50:16;;;;;;;7.88;6.47;;;21.10;80.80;;;;;;5022943;28;20017;-84
2023/06/13 13:52:41;;;;;;;7.93;6.57;;;21.10;80.90;;;;;;5021044;28;20101;-83
2023/06/13 13:55:09;;;;;;;7.50;6.70;;;21.00;80.80;;;;;;5039683;28;20497;-83
2023/06/13 13:57:35;;;;;;;7.97;6.55;;;21.00;80.80;;;;;;5039045;28;20029;-84
2023/06/13 14:00:02;;;;;;;8.13;6.63;;;21.00;80.80;;;;;;5039427;28;20025;-83
2023/06/13 14:02:28;;;;;;;8.20;6.70;;;21.00;80.80;;;;;;5038976;28;20021;-83